ADDS METAR Data INFO
IDs: Format: Raw Decoded Include TAF

Data at: 1708 UTC 29 May 2017

METAR for:KIAH (Houston/Bush Intl, TX, US)
Text:KIAH 291653Z 34004KT 10SM FEW025 SCT039 BKN130 BKN180 OVC250 24/21 A3005 RMK AO2 SLP176 T02390206 $
Temperature: 23.9°C ( 75°F)
Dewpoint: 20.6°C ( 69°F) [RH = 82%]
Pressure (altimeter):30.05 inches Hg (1017.7 mb) [Sea level pressure: 1017.6 mb]
Winds:from the NNW (340 degrees) at 5 MPH (4 knots; 2.1 m/s)
Visibility:10 or more sm (16+ km)
Ceiling:13000 feet AGL
Clouds: few clouds at 2500 feet AGL, scattered clouds at 3900 feet AGL, broken clouds at 13000 feet AGL, broken clouds at 18000 feet AGL
QC Flag:SOME DATA ABOVE MAY BE INACCURATE!!!"$" is an indication the sensor requires maintenance.

METAR for:KHOU (Houston/Hobby Arpt, TX, US)
Text:KHOU 291653Z 25005KT 10SM FEW015 SCT030 BKN130 OVC250 24/21 A3003 RMK AO2 SLP173 T02440206
Temperature: 24.4°C ( 76°F)
Dewpoint: 20.6°C ( 69°F) [RH = 79%]
Pressure (altimeter):30.03 inches Hg (1017.0 mb) [Sea level pressure: 1017.3 mb]
Winds:from the WSW (250 degrees) at 6 MPH (5 knots; 2.6 m/s)
Visibility:10 or more sm (16+ km)
Ceiling:13000 feet AGL
Clouds: few clouds at 1500 feet AGL, scattered clouds at 3000 feet AGL, broken clouds at 13000 feet AGL, overcast cloud deck at 25000 feet AGL

METAR for:KGLS (Galveston/Scholes In, TX, US)
Text:KGLS 291652Z 25005KT 10SM BKN019 BKN120 26/22 A3001 RMK AO2 SLP163 T02560217
Temperature: 25.6°C ( 78°F)
Dewpoint: 21.7°C ( 71°F) [RH = 79%]
Pressure (altimeter):30.01 inches Hg (1016.3 mb) [Sea level pressure: 1016.3 mb]
Winds:from the WSW (250 degrees) at 6 MPH (5 knots; 2.6 m/s)
Visibility:10 or more sm (16+ km)
Ceiling:1900 feet AGL
Clouds: broken clouds at 1900 feet AGL, broken clouds at 12000 feet AGL

METAR for:KLVJ (Houston/Pearland Rgn, TX, US)
Text:KLVJ 291702Z AUTO 32003KT 9SM FEW020 SCT025 BKN035 26/21 A3004 RMK AO2 T02560211
Temperature: 25.6°C ( 78°F)
Dewpoint: 21.1°C ( 70°F) [RH = 76%]
Pressure (altimeter):30.04 inches Hg (1017.4 mb)
Winds:from the NW (320 degrees) at 3 MPH (3 knots; 1.5 m/s)
Visibility: 9 sm ( 14 km)
Ceiling:3500 feet AGL
Clouds: few clouds at 2000 feet AGL, scattered clouds at 2500 feet AGL, broken clouds at 3500 feet AGL
QC Flag:automated observation with no human augmentation

METAR for:KSGR (Houston/Sugar Land R, TX, US)
Text:KSGR 291700Z 32003KT 10SM SCT017 OVC110 24/22 A3004 RMK AO2 T02440222
Temperature: 24.4°C ( 76°F)
Dewpoint: 22.2°C ( 72°F) [RH = 88%]
Pressure (altimeter):30.04 inches Hg (1017.4 mb)
Winds:from the NW (320 degrees) at 3 MPH (3 knots; 1.5 m/s)
Visibility:10 or more sm (16+ km)
Ceiling:11000 feet AGL
Clouds: scattered clouds at 1700 feet AGL, overcast cloud deck at 11000 feet AGL

METAR for:KDWH (Houston/Hooks Mem, TX, US)
Text:KDWH 291653Z 28004KT 10SM SCT010 BKN019 OVC040 24/21 A3006 RMK AO2 SLP178 T02390211 $
Temperature: 23.9°C ( 75°F)
Dewpoint: 21.1°C ( 70°F) [RH = 84%]
Pressure (altimeter):30.06 inches Hg (1018.0 mb) [Sea level pressure: 1017.8 mb]
Winds:from the W (280 degrees) at 5 MPH (4 knots; 2.1 m/s)
Visibility:10 or more sm (16+ km)
Ceiling:1900 feet AGL
Clouds: scattered clouds at 1000 feet AGL, broken clouds at 1900 feet AGL, overcast cloud deck at 4000 feet AGL
QC Flag:SOME DATA ABOVE MAY BE INACCURATE!!!"$" is an indication the sensor requires maintenance.

METAR for:KCLL (College Station/East, TX, US)
Text:KCLL 291653Z 23003KT 10SM OVC023 24/20 A3007 RMK AO2 SLP178 T02390200
Temperature: 23.9°C ( 75°F)
Dewpoint: 20.0°C ( 68°F) [RH = 79%]
Pressure (altimeter):30.07 inches Hg (1018.4 mb) [Sea level pressure: 1017.8 mb]
Winds:from the SW (230 degrees) at 3 MPH (3 knots; 1.5 m/s)
Visibility:10 or more sm (16+ km)
Ceiling:2300 feet AGL
Clouds: overcast cloud deck at 2300 feet AGL

METAR for:KUTS (Huntsville Muni, TX, US)
Text:KUTS 291653Z AUTO 29003KT 10SM BKN015 OVC019 24/19 A3007 RMK AO2 SLP178 T02390194
Temperature: 23.9°C ( 75°F)
Dewpoint: 19.4°C ( 67°F) [RH = 76%]
Pressure (altimeter):30.07 inches Hg (1018.4 mb) [Sea level pressure: 1017.8 mb]
Winds:from the WNW (290 degrees) at 3 MPH (3 knots; 1.5 m/s)
Visibility:10 or more sm (16+ km)
Ceiling:1500 feet AGL
Clouds: broken clouds at 1500 feet AGL, overcast cloud deck at 1900 feet AGL
QC Flag:automated observation with no human augmentation

METAR for:KCXO (Conroe/Executive Arp, TX, US)
Text:KCXO 291653Z 00000KT 10SM SCT010 BKN023 OVC040 23/20 A3007 RMK AO2 SLP178 T02330200 $
Temperature: 23.3°C ( 74°F)
Dewpoint: 20.0°C ( 68°F) [RH = 82%]
Pressure (altimeter):30.07 inches Hg (1018.4 mb) [Sea level pressure: 1017.8 mb]
Winds:calm
Visibility:10 or more sm (16+ km)
Ceiling:2300 feet AGL
Clouds: scattered clouds at 1000 feet AGL, broken clouds at 2300 feet AGL, overcast cloud deck at 4000 feet AGL
QC Flag:SOME DATA ABOVE MAY BE INACCURATE!!!"$" is an indication the sensor requires maintenance.

METAR for:KLBX (Angleton/Texas Gulf, TX, US)
Text:KLBX 291653Z AUTO 31004KT 10SM BKN017 25/22 A3002 RMK AO2 SLP165 T02500217
Temperature: 25.0°C ( 77°F)
Dewpoint: 21.7°C ( 71°F) [RH = 82%]
Pressure (altimeter):30.02 inches Hg (1016.7 mb) [Sea level pressure: 1016.5 mb]
Winds:from the NW (310 degrees) at 5 MPH (4 knots; 2.1 m/s)
Visibility:10 or more sm (16+ km)
Ceiling:1700 feet AGL
Clouds: broken clouds at 1700 feet AGL
QC Flag:automated observation with no human augmentation

METAR for:KPSX (Palacios Muni, TX, US)
Text:KPSX 291653Z AUTO VRB04KT 10SM FEW110 24/21 A3000 RMK AO2 PK WND 16027/1633 RAE03 PRESRR SLP158 P0000 T02390206
Temperature: 23.9°C ( 75°F)
Dewpoint: 20.6°C ( 69°F) [RH = 82%]
Pressure (altimeter):30.00 inches Hg (1016.0 mb) [Sea level pressure: 1015.8 mb]
Winds:variable direction winds at 5 MPH (4 knots; 2.1 m/s)
Visibility:10 or more sm (16+ km)
Ceiling:at least 12,000 feet AGL
Clouds: few clouds at 11000 feet AGL
QC Flag:automated observation with no human augmentation


Page loaded:  17:08 UTC  |   10:08 AM Pacific  |   11:08 AM Mountain  |   12:08 PM Central  |   01:08 PM Eastern

 

ADVISORIES

FORECASTS

FORECASTS

OBSERVATIONS

USER TOOLS

ABOUT US